TJNR/NRR METAR and TAF weather

Enter ICAO airport designator
Station Type Date Time Source
TJNR METAR 2020/08/11 00:18 UTC NOAA

TJNR 110018Z AUTO 09006KT 10SM BKN025 BKN050 28/24 A2999 RMK AO2 T02830239 $


Station Type Date Time Source
TJNR Decoded METAR 2020/08/11 00:18 UTC NOAA

ROOSEVELT ROADS PUERTO RICO, PR, United States (TJNR) 18-15N 65-38W 10M
Aug 10, 2020 - 08:18 PM EDT / 2020.08.11 0018 UTC
Wind: from the E (090 degrees) at 7 MPH (6 KT):0
Visibility: 10 mile(s):0
Sky conditions: mostly cloudy
Temperature: 82.9 F (28.3 C)
Dew Point: 75.0 F (23.9 C)
Relative Humidity: 77%
Pressure (altimeter): 29.99 in. Hg (1015 hPa)
ob: TJNR 110018Z AUTO 09006KT 10SM BKN025 BKN050 28/24 A2999 RMK AO2 T02830239
cycle: 0

Station Type Date Time Source
TJNR TAF UTC NOAA

Error!

Example: see airport list